This is the latest recevied weather packets stored in our database for station/object KC7WRB. If no packets are shown the sender has not sent any weather packets the latest 10 day(s).
| Time | Temp. | Humidity | Pressure | Rain* | Wind** | Luminosity | Snow |
|---|---|---|---|---|---|---|---|
| 1788594604 | 11.67° C | 56% | 1017.6 hPa | 0 mm | - | 0 W/m² | - |
| 1788594286 | 11.67° C | 55% | 1017.5 hPa | 0 mm | - | 0 W/m² | - |
| 1788593981 | 12.78° C | 51% | 1017.5 hPa | 0 mm | - | 0 W/m² | - |
| 1788593676 | 13.33° C | 50% | 1017.5 hPa | 0 mm | - | 0 W/m² | - |
| 1788593372 | 13.89° C | 49% | 1017.2 hPa | 0 mm | - | 0 W/m² | - |
| 1788593067 | 13.89° C | 48% | 1017 hPa | 0 mm | - | 0 W/m² | - |
| 1788592762 | 13.89° C | 48% | 1017 hPa | 0 mm | - | 0 W/m² | - |
| 1788592460 | 13.33° C | 49% | 1017.1 hPa | 0 mm | - | 0 W/m² | - |
| 1788592158 | 12.78° C | 51% | 1016.9 hPa | 0 mm | - | 0 W/m² | - |
| 1788591855 | 13.33° C | 50% | 1016.8 hPa | 0 mm | - | 0 W/m² | - |
| 1788591554 | 12.78° C | 51% | 1016.8 hPa | 0 mm | - | 0 W/m² | - |
| 1788591253 | 12.78° C | 52% | 1016.7 hPa | 0 mm | - | 0 W/m² | - |
| 1788590949 | 13.33° C | 52% | 1016.7 hPa | 0 mm | - | 0 W/m² | - |
| 1788590649 | 12.78° C | 51% | 1016.9 hPa | 0 mm | - | 0 W/m² | - |
| 1788590348 | 13.33° C | 52% | 1016.7 hPa | 0 mm | - | 0 W/m² | - |
| 1788590043 | 13.89° C | 49% | 1016.7 hPa | 0 mm | - | 0 W/m² | - |
| 1788589740 | 13.89° C | 48% | 1016.3 hPa | 0 mm | - | 0 W/m² | - |
| 1788589434 | 14.44° C | 47% | 1016.4 hPa | 0 mm | - | 0 W/m² | - |
| 1788589129 | 14.44° C | 46% | 1016.2 hPa | 0 mm | - | 0 W/m² | - |
| 1788588828 | 15° C | 45% | 1016.2 hPa | 0 mm | - | 0 W/m² | - |
| 1788588523 | 15° C | 43% | 1015.9 hPa | 0 mm | - | 0 W/m² | - |
| 1788588220 | 15° C | 43% | 1015.7 hPa | 0 mm | - | 0 W/m² | - |
| 1788587919 | 15° C | 43% | 1015.6 hPa | 0 mm | - | 0 W/m² | - |
| 1788587614 | 15.56° C | 42% | 1015.9 hPa | 0 mm | - | 0 W/m² | - |
| 1788587313 | 15.56° C | 41% | 1015.5 hPa | 0 mm | - | 0 W/m² | - |
* Rain latest hour (hover to see other rain measurements)
** Current wind speed in m/s (hover to see current wind gust speed)